| time (UTC) | temp F | wind direction | speed MPH | gust MPH | rain 1hr in | rain 24hr in | rain mn in | humidity % | barometer mb |
| 20260510115733 | 52 | 288 | 0.0 | 0.0 | 0.00 | 0.00 | 0.00 | 99 | 1012.2 |
| 20260510115232 | 51 | 312 | 1.0 | 1.0 | 0.00 | 0.00 | 0.00 | 99 | 1012.2 |
| 20260510114726 | 52 | 283 | 0.0 | 0.0 | 0.00 | 0.00 | 0.00 | 99 | 1011.9 |
| 20260510114224 | 52 | 259 | 0.0 | 0.0 | 0.00 | 0.00 | 0.00 | 99 | 1011.9 |
| 20260510113719 | 51 | 310 | 0.0 | 0.0 | 0.00 | 0.00 | 0.00 | 99 | 1012.0 |
| 20260510113216 | 51 | 310 | 0.0 | 0.0 | 0.00 | 0.00 | 0.00 | 99 | 1012.0 |
| 20260510112712 | 51 | 310 | 0.0 | 0.0 | 0.00 | 0.00 | 0.00 | 99 | 1011.9 |
| 20260510112210 | 51 | 310 | 0.0 | 0.0 | 0.00 | 0.00 | 0.00 | 99 | 1011.7 |
| 20260510111705 | 51 | 310 | 0.0 | 0.0 | 0.00 | 0.00 | 0.00 | 99 | 1011.7 |
| 20260510111203 | 51 | 310 | 0.0 | 0.0 | 0.00 | 0.00 | 0.00 | 99 | 1011.7 |
| 20260510110703 | 51 | 310 | 0.0 | 0.0 | 0.00 | 0.00 | 0.00 | 99 | 1011.8 |
| 20260510110201 | 51 | 310 | 0.0 | 0.0 | 0.00 | 0.00 | 0.00 | 99 | 1011.7 |
| 20260510105701 | 51 | 310 | 0.0 | 0.0 | 0.00 | 0.00 | 0.00 | 99 | 1011.8 |
| 20260510105201 | 51 | 310 | 0.0 | 0.0 | 0.00 | 0.00 | 0.00 | 99 | 1011.9 |
| 20260510104658 | 51 | 310 | 0.0 | 0.0 | 0.00 | 0.00 | 0.00 | 99 | 1011.7 |
| 20260510104155 | 51 | 310 | 0.0 | 0.0 | 0.00 | 0.00 | 0.00 | 99 | 1011.7 |
| 20260510103651 | 51 | 310 | 0.0 | 0.0 | 0.00 | 0.00 | 0.00 | 99 | 1011.5 |
| 20260510103148 | 51 | 310 | 0.0 | 0.0 | 0.00 | 0.00 | 0.00 | 99 | 1011.5 |
| 20260510102648 | 51 | 311 | 0.0 | 0.0 | 0.00 | 0.00 | 0.00 | 99 | 1011.5 |
| 20260510102145 | 51 | 311 | 0.0 | 0.0 | 0.00 | 0.00 | 0.00 | 99 | 1011.5 |
| 20260510101642 | 51 | 311 | 0.0 | 0.0 | 0.00 | 0.00 | 0.00 | 99 | 1011.5 |
| 20260510101140 | 51 | 313 | 0.0 | 0.0 | 0.00 | 0.00 | 0.00 | 99 | 1011.4 |
| 20260510100636 | 51 | 211 | 0.0 | 0.0 | 0.00 | 0.00 | 0.00 | 99 | 1011.3 |
| 20260510100134 | 51 | 211 | 0.0 | 0.0 | 0.00 | 0.00 | 0.00 | 99 | 1011.4 |
| 20260510095629 | 51 | 210 | 0.0 | 1.0 | 0.00 | 0.00 | 0.00 | 99 | 1011.2 |
| 20260510095124 | 51 | 66 | 0.0 | 0.0 | 0.00 | 0.00 | 0.00 | 99 | 1011.3 |
| 20260510094623 | 51 | 224 | 0.0 | 0.0 | 0.00 | 0.00 | 0.00 | 99 | 1011.3 |
| 20260510094119 | 51 | 185 | 1.0 | 1.0 | 0.00 | 0.00 | 0.00 | 99 | 1011.3 |
| 20260510093616 | 51 | 229 | 0.0 | 1.0 | 0.00 | 0.00 | 0.00 | 99 | 1011.1 |
| 20260510093112 | 51 | 72 | 0.0 | 1.0 | 0.00 | 0.00 | 0.00 | 99 | 1010.7 |
| 20260510092609 | 51 | 262 | 0.0 | 1.0 | 0.00 | 0.00 | 0.00 | 99 | 1010.9 |
| 20260510092109 | 51 | 202 | 0.0 | 0.0 | 0.00 | 0.00 | 0.00 | 99 | 1010.9 |
| 20260510091606 | 51 | 318 | 0.0 | 0.0 | 0.00 | 0.00 | 0.00 | 99 | 1010.9 |
| 20260510091102 | 51 | 318 | 0.0 | 0.0 | 0.00 | 0.00 | 0.00 | 99 | 1010.6 |
| 20260510090559 | 51 | 260 | 0.0 | 1.0 | 0.00 | 0.00 | 0.00 | 99 | 1010.6 |
| 20260510090055 | 51 | 240 | 0.0 | 1.0 | 0.00 | 0.00 | 0.00 | 99 | 1010.4 |
| 20260510085549 | 51 | 184 | 3.0 | 4.0 | 0.00 | 0.00 | 0.00 | 99 | 1010.4 |
| 20260510085046 | 51 | 82 | 0.0 | 1.0 | 0.00 | 0.00 | 0.00 | 99 | 1010.5 |
| 20260510084543 | 51 | 122 | 0.0 | 1.0 | 0.00 | 0.00 | 0.00 | 99 | 1010.5 |
| 20260510084039 | 51 | 249 | 1.0 | 1.0 | 0.00 | 0.00 | 0.00 | 99 | 1010.7 |
| 20260510083536 | 51 | 221 | 1.0 | 1.0 | 0.00 | 0.00 | 0.00 | 99 | 1010.4 |
| 20260510083032 | 51 | 64 | 0.0 | 0.0 | 0.00 | 0.00 | 0.00 | 99 | 1010.4 |
| 20260510082529 | 51 | 11 | 0.0 | 1.0 | 0.00 | 0.00 | 0.00 | 99 | 1010.5 |
| 20260510082025 | 51 | 97 | 0.0 | 0.0 | 0.00 | 0.00 | 0.00 | 99 | 1010.7 |
| 20260510081520 | 51 | 225 | 0.0 | 1.0 | 0.00 | 0.00 | 0.00 | 99 | 1010.7 |
| 20260510081016 | 51 | 48 | 0.0 | 1.0 | 0.00 | 0.00 | 0.00 | 99 | 1010.4 |
| 20260510080514 | 51 | 240 | 2.0 | 3.0 | 0.00 | 0.00 | 0.00 | 99 | 1010.8 |
| 20260510080012 | 51 | 209 | 1.0 | 1.0 | 0.00 | 0.00 | 0.00 | 99 | 1010.8 |
| 20260510075509 | 51 | 21 | 2.0 | 2.0 | 0.00 | 0.00 | 0.00 | 99 | 1010.8 |
| 20260510075006 | 51 | 214 | 2.0 | 2.0 | 0.00 | 0.00 | 0.00 | 99 | 1010.9 |
| 20260510074504 | 51 | 228 | 0.0 | 1.0 | 0.00 | 0.00 | 0.00 | 99 | 1011.1 |
| 20260510073959 | 51 | 319 | 0.0 | 0.0 | 0.00 | 0.00 | 0.00 | 99 | 1011.0 |
| 20260510073455 | 51 | 263 | 0.0 | 1.0 | 0.00 | 0.00 | 0.00 | 99 | 1011.0 |
| 20260510072952 | 51 | 246 | 0.0 | 1.0 | 0.00 | 0.00 | 0.00 | 99 | 1011.0 |
| 20260510072449 | 51 | 261 | 1.0 | 1.0 | 0.00 | 0.00 | 0.00 | 99 | 1010.9 |
| 20260510071944 | 51 | 204 | 1.0 | 2.0 | 0.00 | 0.00 | 0.00 | 99 | 1011.4 |
| 20260510071441 | 51 | 225 | 1.0 | 1.0 | 0.00 | 0.00 | 0.00 | 99 | 1011.2 |
| 20260510070939 | 51 | 254 | 1.0 | 1.0 | 0.00 | 0.00 | 0.00 | 99 | 1011.2 |
| 20260510070436 | 51 | 287 | 0.0 | 0.0 | 0.00 | 0.00 | 0.00 | 99 | 1011.5 |
| 20260510065931 | 51 | 285 | 0.0 | 0.0 | 0.00 | 0.00 | 0.00 | 99 | 1011.6 |
| 20260510065428 | 51 | 286 | 0.0 | 0.0 | 0.00 | 0.00 | 0.00 | 99 | 1011.5 |
| 20260510064924 | 51 | 286 | 0.0 | 0.0 | 0.00 | 0.00 | 0.00 | 99 | 1011.4 |
| 20260510064422 | 51 | 232 | 0.0 | 1.0 | 0.00 | 0.00 | 0.00 | 99 | 1011.5 |
| 20260510063919 | 51 | 209 | 0.0 | 1.0 | 0.00 | 0.00 | 0.00 | 99 | 1011.3 |
| 20260510063415 | 51 | 219 | 1.0 | 1.0 | 0.00 | 0.00 | 0.00 | 99 | 1011.8 |
| 20260510062913 | 51 | 319 | 0.0 | 0.0 | 0.00 | 0.00 | 0.00 | 99 | 1011.5 |
| 20260510062408 | 51 | 296 | 0.0 | 0.0 | 0.00 | 0.00 | 0.00 | 99 | 1011.1 |
| 20260510061903 | 51 | 272 | 0.0 | 0.0 | 0.00 | 0.00 | 0.00 | 99 | 1010.9 |
| 20260510061400 | 51 | 272 | 0.0 | 0.0 | 0.00 | 0.00 | 0.00 | 99 | 1010.9 |
| 20260510060856 | 51 | 258 | 0.0 | 0.0 | 0.00 | 0.00 | 0.00 | 99 | 1010.9 |
| 20260510060353 | 51 | 249 | 0.0 | 0.0 | 0.00 | 0.00 | 0.00 | 99 | 1011.2 |
| 20260510055849 | 51 | 252 | 0.0 | 0.0 | 0.00 | 0.00 | 0.00 | 99 | 1011.2 |
| 20260510055349 | 51 | 253 | 1.0 | 1.0 | 0.00 | 0.00 | 0.00 | 99 | 1011.2 |
| 20260510054848 | 51 | 314 | 0.0 | 0.0 | 0.00 | 0.00 | 0.00 | 99 | 1011.0 |
| 20260510054344 | 51 | 253 | 0.0 | 0.0 | 0.00 | 0.00 | 0.00 | 99 | 1011.0 |
| 20260510053839 | 51 | 253 | 0.0 | 0.0 | 0.00 | 0.00 | 0.00 | 99 | 1011.1 |
| 20260510053335 | 51 | 260 | 0.0 | 0.0 | 0.00 | 0.00 | 0.00 | 99 | 1011.1 |
| 20260510052831 | 51 | 269 | 0.0 | 0.0 | 0.00 | 0.00 | 0.00 | 99 | 1010.8 |
| 20260510052327 | 51 | 284 | 0.0 | 1.0 | 0.00 | 0.00 | 0.00 | 99 | 1011.1 |
| 20260510051824 | 50 | 291 | 0.0 | 0.0 | 0.00 | 0.00 | 0.00 | 99 | 1011.1 |
| 20260510051321 | 50 | 291 | 0.0 | 0.0 | 0.00 | 0.00 | 0.00 | 99 | 1011.2 |
| 20260510050818 | 50 | 291 | 0.0 | 0.0 | 0.00 | 0.00 | 0.00 | 99 | 1011.1 |
| 20260510050314 | 50 | 292 | 0.0 | 0.0 | 0.00 | 0.00 | 0.00 | 99 | 1010.9 |
| 20260510045811 | 50 | 291 | 0.0 | 0.0 | 0.00 | 0.00 | 0.00 | 99 | 1010.8 |
| 20260510045308 | 50 | 291 | 0.0 | 0.0 | 0.00 | 0.00 | 0.00 | 99 | 1010.9 |
| 20260510044805 | 50 | 291 | 0.0 | 0.0 | 0.00 | 0.00 | 0.00 | 99 | 1010.7 |
| 20260510044302 | 50 | 291 | 0.0 | 0.0 | 0.00 | 0.00 | 0.00 | 99 | 1011.0 |
| 20260510043758 | 50 | 291 | 0.0 | 0.0 | 0.00 | 0.00 | 0.00 | 99 | 1011.0 |
| 20260510043254 | 50 | 291 | 0.0 | 0.0 | 0.00 | 0.00 | 0.00 | 99 | 1010.9 |
| 20260510042752 | 50 | 291 | 0.0 | 0.0 | 0.00 | 0.00 | 0.00 | 99 | 1011.0 |
| 20260510042247 | 50 | 291 | 0.0 | 0.0 | 0.00 | 0.00 | 0.00 | 99 | 1010.9 |
| 20260510041744 | 50 | 284 | 0.0 | 0.0 | 0.00 | 0.00 | 0.00 | 99 | 1010.9 |
| 20260510041242 | 50 | 282 | 0.0 | 0.0 | 0.00 | 0.00 | 0.00 | 99 | 1011.1 |
| 20260510040739 | 50 | 282 | 0.0 | 0.0 | 0.00 | 0.00 | 0.00 | 99 | 1010.6 |
| 20260510040236 | 50 | 282 | 0.0 | 0.0 | 0.00 | 0.00 | 0.00 | 99 | 1010.9 |
| 20260510035731 | 50 | 282 | 0.0 | 0.0 | 0.00 | 0.46 | 0.46 | 99 | 1010.7 |
| 20260510035227 | 50 | 282 | 0.0 | 0.0 | 0.00 | 0.46 | 0.46 | 99 | 1011.0 |
| 20260510034723 | 50 | 282 | 0.0 | 0.0 | 0.00 | 0.46 | 0.46 | 99 | 1010.6 |
| 20260510034221 | 51 | 282 | 0.0 | 0.0 | 0.00 | 0.46 | 0.46 | 99 | 1010.6 |
| 20260510033717 | 51 | 282 | 0.0 | 0.0 | 0.00 | 0.46 | 0.46 | 99 | 1010.7 |
| 20260510033215 | 51 | 282 | 0.0 | 0.0 | 0.00 | 0.46 | 0.46 | 99 | 1010.9 |
| 20260510032711 | 51 | 309 | 0.0 | 1.0 | 0.00 | 0.46 | 0.46 | 99 | 1010.8 |
| 20260510032207 | 51 | 302 | 0.0 | 0.0 | 0.00 | 0.46 | 0.46 | 99 | 1010.8 |
| 20260510031701 | 52 | 302 | 0.0 | 0.0 | 0.00 | 0.46 | 0.46 | 99 | 1010.8 |
| 20260510031159 | 52 | 302 | 0.0 | 0.0 | 0.00 | 0.46 | 0.46 | 99 | 1010.9 |
| 20260510030658 | 52 | 302 | 0.0 | 0.0 | 0.00 | 0.46 | 0.46 | 99 | 1011.1 |
| 20260510030156 | 52 | 299 | 0.0 | 1.0 | 0.00 | 0.46 | 0.46 | 99 | 1011.2 |
| 20260510025653 | 52 | 299 | 0.0 | 0.0 | 0.00 | 0.46 | 0.46 | 99 | 1011.1 |
| 20260510025150 | 52 | 299 | 0.0 | 0.0 | 0.00 | 0.46 | 0.46 | 99 | 1011.0 |
| 20260510024647 | 51 | 300 | 0.0 | 0.0 | 0.00 | 0.46 | 0.46 | 99 | 1010.8 |
| 20260510024143 | 51 | 297 | 0.0 | 0.0 | 0.00 | 0.46 | 0.46 | 99 | 1010.7 |
| 20260510023639 | 51 | 297 | 0.0 | 0.0 | 0.00 | 0.46 | 0.46 | 98 | 1010.6 |
| 20260510023137 | 51 | 297 | 0.0 | 0.0 | 0.00 | 0.46 | 0.46 | 98 | 1010.8 |
| 20260510022637 | 52 | 297 | 0.0 | 0.0 | 0.00 | 0.46 | 0.46 | 98 | 1010.7 |
| 20260510022132 | 52 | 297 | 0.0 | 0.0 | 0.00 | 0.46 | 0.46 | 98 | 1010.7 |
| 20260510021628 | 52 | 297 | 0.0 | 0.0 | 0.00 | 0.46 | 0.46 | 98 | 1010.5 |
| 20260510021126 | 53 | 299 | 0.0 | 0.0 | 0.00 | 0.46 | 0.46 | 98 | 1010.5 |
| 20260510020626 | 53 | 299 | 0.0 | 0.0 | 0.00 | 0.46 | 0.46 | 98 | 1010.6 |
| 20260510020121 | 53 | 299 | 0.0 | 0.0 | 0.00 | 0.46 | 0.46 | 98 | 1010.4 |
| 20260510015618 | 53 | 299 | 0.0 | 0.0 | 0.00 | 0.46 | 0.46 | 98 | 1010.5 |
| 20260510015114 | 53 | 299 | 0.0 | 0.0 | 0.00 | 0.46 | 0.46 | 98 | 1010.6 |
| 20260510014610 | 53 | 299 | 0.0 | 0.0 | 0.00 | 0.46 | 0.46 | 97 | 1011.0 |
| 20260510014108 | 53 | 279 | 0.0 | 1.0 | 0.00 | 0.46 | 0.46 | 97 | 1010.8 |
| 20260510013602 | 53 | 266 | 1.0 | 1.0 | 0.00 | 0.46 | 0.46 | 97 | 1010.8 |
| 20260510013058 | 53 | 256 | 0.0 | 0.0 | 0.00 | 0.46 | 0.46 | 97 | 1010.7 |
| 20260510012557 | 53 | 19 | 0.0 | 0.0 | 0.00 | 0.46 | 0.46 | 97 | 1010.7 |
| 20260510012054 | 54 | 21 | 0.0 | 0.0 | 0.00 | 0.46 | 0.46 | 97 | 1010.4 |
| 20260510011553 | 54 | 99 | 0.0 | 0.0 | 0.00 | 0.46 | 0.46 | 97 | 1010.5 |
| 20260510011049 | 54 | 238 | 0.0 | 0.0 | 0.00 | 0.46 | 0.46 | 97 | 1010.3 |
| 20260510010546 | 54 | 251 | 0.0 | 0.0 | 0.00 | 0.46 | 0.46 | 97 | 1010.5 |
| 20260510010043 | 54 | 254 | 1.0 | 1.0 | 0.00 | 0.46 | 0.46 | 97 | 1010.1 |
| 20260510005539 | 54 | 252 | 0.0 | 0.0 | 0.00 | 0.46 | 0.46 | 97 | 1010.1 |
| 20260510005037 | 54 | 212 | 2.0 | 2.0 | 0.00 | 0.46 | 0.46 | 97 | 1010.3 |
| 20260510004534 | 54 | 335 | 0.0 | 0.0 | 0.00 | 0.46 | 0.46 | 97 | 1010.3 |
| 20260510004032 | 55 | 286 | 0.0 | 0.0 | 0.00 | 0.46 | 0.46 | 97 | 1010.1 |
| 20260510003529 | 55 | 326 | 1.0 | 1.0 | 0.00 | 0.46 | 0.46 | 97 | 1010.0 |
| 20260510003024 | 55 | 247 | 0.0 | 0.0 | 0.00 | 0.46 | 0.46 | 97 | 1010.0 |
| 20260510002520 | 55 | 248 | 0.0 | 0.0 | 0.00 | 0.46 | 0.46 | 97 | 1009.9 |
| 20260510002017 | 55 | 247 | 0.0 | 0.0 | 0.00 | 0.46 | 0.46 | 97 | 1009.8 |
| 20260510001514 | 55 | 249 | 0.0 | 0.0 | 0.00 | 0.46 | 0.46 | 97 | 1010.0 |
| 20260510001012 | 55 | 253 | 0.0 | 0.0 | 0.00 | 0.46 | 0.46 | 96 | 1009.9 |
| 20260510000512 | 55 | 291 | 0.0 | 0.0 | 0.00 | 0.46 | 0.46 | 96 | 1009.5 |
| 20260510000010 | 55 | 268 | 0.0 | 1.0 | 0.00 | 0.46 | 0.46 | 96 | 1009.5 |
| 20260509235507 | 55 | 274 | 0.0 | 1.0 | 0.00 | 0.46 | 0.46 | 96 | 1009.3 |
| 20260509235003 | 55 | 168 | 0.0 | 1.0 | 0.00 | 0.46 | 0.46 | 96 | 1009.6 |
| 20260509234459 | 55 | 208 | 2.0 | 2.0 | 0.00 | 0.46 | 0.46 | 96 | 1009.6 |
| 20260509233957 | 55 | 250 | 0.0 | 0.0 | 0.00 | 0.46 | 0.46 | 96 | 1009.4 |
| 20260509233454 | 55 | 250 | 0.0 | 0.0 | 0.00 | 0.46 | 0.46 | 96 | 1009.3 |
| 20260509232950 | 56 | 229 | 0.0 | 1.0 | 0.00 | 0.46 | 0.46 | 96 | 1009.3 |
| 20260509232448 | 56 | 81 | 1.0 | 1.0 | 0.00 | 0.46 | 0.46 | 96 | 1009.3 |
| 20260509231944 | 56 | 177 | 1.0 | 1.0 | 0.00 | 0.46 | 0.46 | 95 | 1009.2 |
| 20260509231441 | 56 | 264 | 0.0 | 0.0 | 0.00 | 0.46 | 0.46 | 95 | 1009.4 |
| 20260509230939 | 56 | 219 | 0.0 | 1.0 | 0.00 | 0.46 | 0.46 | 96 | 1009.2 |
| 20260509230435 | 56 | 277 | 0.0 | 0.0 | 0.00 | 0.46 | 0.46 | 96 | 1009.4 |
| 20260509225931 | 56 | 92 | 1.0 | 1.0 | 0.00 | 0.46 | 0.46 | 96 | 1009.4 |
| 20260509225428 | 56 | 298 | 0.0 | 0.0 | 0.00 | 0.46 | 0.46 | 96 | 1009.3 |
| 20260509224924 | 56 | 195 | 0.0 | 0.0 | 0.00 | 0.46 | 0.46 | 96 | 1009.4 |
| 20260509224419 | 56 | 230 | 0.0 | 0.0 | 0.00 | 0.46 | 0.46 | 96 | 1009.5 |
| 20260509223917 | 56 | 206 | 1.0 | 2.0 | 0.00 | 0.46 | 0.46 | 96 | 1009.4 |
| 20260509223414 | 57 | 250 | 0.0 | 1.0 | 0.00 | 0.46 | 0.46 | 96 | 1009.4 |
| 20260509222911 | 57 | 307 | 0.0 | 0.0 | 0.00 | 0.46 | 0.46 | 97 | 1009.3 |
| 20260509222406 | 57 | 306 | 0.0 | 0.0 | 0.00 | 0.46 | 0.46 | 97 | 1009.5 |
| 20260509221901 | 56 | 305 | 0.0 | 0.0 | 0.00 | 0.46 | 0.46 | 97 | 1009.4 |
| 20260509221359 | 55 | 308 | 0.0 | 0.0 | 0.00 | 0.46 | 0.46 | 97 | 1009.5 |
| 20260509220855 | 56 | 308 | 0.0 | 0.0 | 0.00 | 0.46 | 0.46 | 97 | 1009.5 |
| 20260509220351 | 56 | 297 | 0.0 | 0.0 | 0.00 | 0.46 | 0.46 | 97 | 1009.4 |
| 20260509215847 | 56 | 299 | 0.0 | 0.0 | 0.00 | 0.46 | 0.46 | 97 | 1009.3 |
| 20260509215343 | 56 | 292 | 0.0 | 0.0 | 0.00 | 0.46 | 0.46 | 97 | 1009.4 |
| 20260509214840 | 56 | 252 | 0.0 | 0.0 | 0.00 | 0.46 | 0.46 | 97 | 1009.4 |
| 20260509214338 | 56 | 231 | 0.0 | 1.0 | 0.00 | 0.46 | 0.46 | 97 | 1009.5 |
| 20260509213835 | 56 | 268 | 0.0 | 0.0 | 0.00 | 0.46 | 0.46 | 97 | 1009.6 |
| 20260509213330 | 56 | 333 | 0.0 | 0.0 | 0.00 | 0.46 | 0.46 | 97 | 1009.6 |
| 20260509212828 | 56 | 303 | 1.0 | 1.0 | 0.00 | 0.46 | 0.46 | 97 | 1009.5 |
| 20260509212326 | 56 | 235 | 1.0 | 1.0 | 0.00 | 0.46 | 0.46 | 97 | 1009.7 |
| 20260509211821 | 56 | 258 | 1.0 | 1.0 | 0.00 | 0.46 | 0.46 | 97 | 1009.8 |
| 20260509211317 | 56 | 244 | 1.0 | 1.0 | 0.00 | 0.46 | 0.46 | 98 | 1009.6 |
| 20260509210814 | 55 | 211 | 0.0 | 0.0 | 0.07 | 0.46 | 0.46 | 98 | 1009.7 |
| 20260509210312 | 55 | 203 | 1.0 | 2.0 | 0.07 | 0.46 | 0.46 | 98 | 1009.7 |
| 20260509205811 | 55 | 230 | 2.0 | 2.0 | 0.00 | 0.45 | 0.45 | 98 | 1009.6 |
| 20260509205307 | 55 | 264 | 0.0 | 1.0 | 0.00 | 0.45 | 0.45 | 98 | 1009.6 |
| 20260509204802 | 55 | 280 | 0.0 | 0.0 | 0.00 | 0.45 | 0.45 | 98 | 1009.8 |
| 20260509204258 | 55 | 58 | 0.0 | 1.0 | 0.05 | 0.45 | 0.45 | 98 | 1010.1 |
| 20260509203754 | 55 | 248 | 1.0 | 1.0 | 0.05 | 0.45 | 0.45 | 98 | 1010.0 |
| 20260509203252 | 55 | 61 | 0.0 | 0.0 | 0.00 | 0.44 | 0.44 | 98 | 1010.0 |
| 20260509202748 | 55 | 268 | 0.0 | 0.0 | 0.00 | 0.44 | 0.44 | 98 | 1010.2 |
| 20260509202245 | 55 | 273 | 0.0 | 1.0 | 0.07 | 0.44 | 0.44 | 98 | 1010.4 |
| 20260509201744 | 55 | 305 | 0.0 | 0.0 | 0.07 | 0.44 | 0.44 | 98 | 1010.4 |
| 20260509201241 | 54 | 273 | 0.0 | 0.0 | 0.00 | 0.43 | 0.43 | 98 | 1010.3 |
| 20260509200738 | 54 | 243 | 0.0 | 0.0 | 0.05 | 0.43 | 0.43 | 98 | 1010.4 |
| 20260509200238 | 54 | 311 | 0.0 | 1.0 | 0.05 | 0.43 | 0.43 | 98 | 1010.6 |
| 20260509195734 | 54 | 335 | 0.0 | 0.0 | 0.00 | 0.42 | 0.42 | 98 | 1010.7 |
| 20260509195229 | 54 | 289 | 0.0 | 0.0 | 0.07 | 0.42 | 0.42 | 98 | 1010.8 |
| 20260509194724 | 54 | 273 | 0.0 | 0.0 | 0.07 | 0.42 | 0.42 | 98 | 1010.9 |
| 20260509194221 | 54 | 244 | 1.0 | 1.0 | 0.05 | 0.41 | 0.41 | 98 | 1010.8 |
| 20260509193718 | 54 | 240 | 0.0 | 1.0 | 0.05 | 0.41 | 0.41 | 98 | 1010.8 |
| 20260509193217 | 54 | 111 | 1.0 | 1.0 | 0.07 | 0.40 | 0.40 | 98 | 1011.0 |
| 20260509192714 | 54 | 85 | 0.0 | 1.0 | 0.07 | 0.40 | 0.40 | 98 | 1011.0 |
| 20260509192209 | 54 | 33 | 0.0 | 1.0 | 0.07 | 0.39 | 0.39 | 98 | 1011.1 |
| 20260509191705 | 54 | 241 | 0.0 | 0.0 | 0.12 | 0.39 | 0.39 | 98 | 1011.2 |
| 20260509191201 | 54 | 40 | 0.0 | 0.0 | 0.05 | 0.38 | 0.38 | 98 | 1011.4 |
| 20260509190657 | 54 | 251 | 0.0 | 0.0 | 0.00 | 0.37 | 0.37 | 98 | 1011.4 |
| 20260509190155 | 54 | 252 | 0.0 | 0.0 | 0.07 | 0.37 | 0.37 | 98 | 1011.4 |
| 20260509185653 | 54 | 246 | 0.0 | 0.0 | 0.07 | 0.37 | 0.37 | 98 | 1011.4 |
| 20260509185148 | 54 | 230 | 1.0 | 1.0 | 0.05 | 0.36 | 0.36 | 98 | 1011.6 |
| 20260509184646 | 53 | 318 | 0.0 | 0.0 | 0.05 | 0.36 | 0.36 | 97 | 1011.4 |
| 20260509184143 | 53 | 318 | 0.0 | 0.0 | 0.07 | 0.35 | 0.35 | 97 | 1011.5 |
| 20260509183640 | 53 | 318 | 0.0 | 0.0 | 0.07 | 0.35 | 0.35 | 97 | 1011.5 |
| 20260509183140 | 53 | 318 | 0.0 | 0.0 | 0.05 | 0.34 | 0.34 | 97 | 1011.4 |
| 20260509182636 | 53 | 318 | 0.0 | 0.0 | 0.05 | 0.34 | 0.34 | 97 | 1011.6 |
| 20260509182134 | 53 | 318 | 0.0 | 0.0 | 0.07 | 0.33 | 0.33 | 97 | 1011.4 |
| 20260509181632 | 53 | 318 | 0.0 | 0.0 | 0.12 | 0.33 | 0.33 | 97 | 1011.4 |
| 20260509181129 | 53 | 318 | 0.0 | 0.0 | 0.05 | 0.32 | 0.32 | 96 | 1011.2 |
| 20260509180625 | 53 | 318 | 0.0 | 0.0 | 0.12 | 0.32 | 0.32 | 96 | 1011.3 |
| 20260509180122 | 53 | 318 | 0.0 | 0.0 | 0.12 | 0.31 | 0.31 | 96 | 1011.3 |
| 20260509175617 | 52 | 318 | 0.0 | 0.0 | 0.12 | 0.30 | 0.30 | 96 | 1011.3 |
| 20260509175115 | 53 | 318 | 0.0 | 0.0 | 0.07 | 0.29 | 0.29 | 96 | 1011.4 |
| 20260509174611 | 53 | 318 | 0.0 | 0.0 | 0.05 | 0.28 | 0.28 | 96 | 1011.5 |
| 20260509174106 | 53 | 318 | 0.0 | 0.0 | 0.05 | 0.28 | 0.28 | 96 | 1011.5 |
| 20260509173601 | 0 | 0.0 | 0.0 | 0.00 | 0.00 | 0.00 | 1011.3 | ||
| 20260509173058 | 52 | 318 | 0.0 | 0.0 | 0.07 | 0.27 | 0.27 | 96 | 1011.3 |
| 20260509172555 | 52 | 318 | 0.0 | 0.0 | 0.07 | 0.27 | 0.27 | 96 | 1011.3 |
| 20260509172050 | 52 | 318 | 0.0 | 0.0 | 0.00 | 0.26 | 0.26 | 97 | 1011.4 |
| 20260509171546 | 52 | 318 | 0.0 | 0.0 | 0.00 | 0.26 | 0.26 | 96 | 1011.2 |
| 20260509171043 | 52 | 318 | 0.0 | 0.0 | 0.07 | 0.26 | 0.26 | 96 | 1011.3 |
| 20260509170539 | 52 | 318 | 0.0 | 0.0 | 0.07 | 0.26 | 0.26 | 96 | 1011.3 |
| 20260509170035 | 52 | 318 | 0.0 | 0.0 | 0.00 | 0.25 | 0.25 | 96 | 1011.4 |
| 20260509165534 | 52 | 318 | 0.0 | 0.0 | 0.00 | 0.25 | 0.25 | 95 | 1011.4 |
| 20260509165029 | 51 | 318 | 0.0 | 0.0 | 0.00 | 0.25 | 0.25 | 95 | 1011.6 |
| 20260509164526 | 51 | 279 | 0.0 | 1.0 | 0.00 | 0.25 | 0.25 | 95 | 1011.7 |
| 20260509164021 | 51 | 279 | 0.0 | 0.0 | 0.05 | 0.25 | 0.25 | 96 | 1011.8 |
| 20260509163519 | 51 | 279 | 0.0 | 0.0 | 0.05 | 0.25 | 0.25 | 95 | 1011.9 |
| 20260509163014 | 51 | 279 | 0.0 | 0.0 | 0.07 | 0.24 | 0.24 | 96 | 1012.0 |
| 20260509162512 | 51 | 279 | 0.0 | 0.0 | 0.07 | 0.24 | 0.24 | 96 | 1012.0 |
| 20260509162008 | 51 | 277 | 0.0 | 0.0 | 0.00 | 0.23 | 0.23 | 96 | 1012.2 |
| 20260509161504 | 51 | 282 | 0.0 | 0.0 | 0.05 | 0.23 | 0.23 | 96 | 1012.2 |
| 20260509160959 | 51 | 282 | 0.0 | 0.0 | 0.12 | 0.23 | 0.23 | 96 | 1012.4 |
| 20260509160455 | 51 | 282 | 0.0 | 0.0 | 0.07 | 0.22 | 0.22 | 96 | 1012.3 |
| 20260509155956 | 51 | 282 | 0.0 | 0.0 | 0.07 | 0.22 | 0.22 | 95 | 1012.5 |
| 20260509155452 | 51 | 278 | 0.0 | 0.0 | 0.05 | 0.21 | 0.21 | 95 | 1012.4 |
| 20260509154949 | 51 | 318 | 1.0 | 1.0 | 0.05 | 0.21 | 0.21 | 95 | 1012.5 |
| 20260509154445 | 51 | 319 | 0.0 | 0.0 | 0.00 | 0.20 | 0.20 | 95 | 1012.4 |
| 20260509153943 | 51 | 320 | 0.0 | 0.0 | 0.07 | 0.20 | 0.20 | 95 | 1012.7 |
| 20260509153439 | 51 | 320 | 0.0 | 0.0 | 0.07 | 0.20 | 0.20 | 95 | 1012.4 |
| 20260509152937 | 51 | 320 | 0.0 | 0.0 | 0.00 | 0.19 | 0.19 | 95 | 1012.4 |
| 20260509152432 | 50 | 318 | 0.0 | 0.0 | 0.05 | 0.19 | 0.19 | 95 | 1012.5 |
| 20260509151930 | 50 | 324 | 0.0 | 0.0 | 0.05 | 0.19 | 0.19 | 95 | 1012.4 |
| 20260509151426 | 50 | 316 | 0.0 | 0.0 | 0.05 | 0.19 | 0.19 | 95 | 1012.3 |
| 20260509150924 | 50 | 279 | 0.0 | 0.0 | 0.00 | 0.18 | 0.18 | 95 | 1012.7 |
| 20260509150421 | 50 | 278 | 0.0 | 0.0 | 0.00 | 0.18 | 0.18 | 95 | 1012.8 |
| 20260509145920 | 50 | 276 | 0.0 | 1.0 | 0.07 | 0.18 | 0.18 | 95 | 1012.8 |
| 20260509145419 | 50 | 300 | 0.0 | 0.0 | 0.07 | 0.18 | 0.18 | 95 | 1012.6 |
| 20260509144915 | 49 | 299 | 0.0 | 0.0 | 0.00 | 0.17 | 0.17 | 95 | 1012.6 |
| 20260509144412 | 49 | 332 | 0.0 | 0.0 | 0.00 | 0.17 | 0.17 | 96 | 1012.7 |
| 20260509143909 | 50 | 258 | 0.0 | 0.0 | 0.05 | 0.17 | 0.17 | 96 | 1013.0 |
| 20260509143407 | 50 | 255 | 0.0 | 0.0 | 0.05 | 0.17 | 0.17 | 96 | 1012.7 |
| 20260509142903 | 49 | 256 | 0.0 | 0.0 | 0.00 | 0.16 | 0.16 | 96 | 1012.9 |
| 20260509142359 | 48 | 255 | 0.0 | 0.0 | 0.00 | 0.16 | 0.16 | 96 | 1012.7 |
| 20260509141855 | 48 | 254 | 0.0 | 0.0 | 0.00 | 0.16 | 0.16 | 97 | 1012.8 |
| 20260509141352 | 48 | 231 | 0.0 | 0.0 | 0.00 | 0.16 | 0.16 | 96 | 1012.9 |
| 20260509140849 | 48 | 223 | 1.0 | 1.0 | 0.07 | 0.16 | 0.16 | 97 | 1012.8 |
| 20260509140346 | 48 | 222 | 0.0 | 0.0 | 0.07 | 0.16 | 0.16 | 97 | 1012.8 |
| 20260509135844 | 48 | 218 | 1.0 | 1.0 | 0.07 | 0.15 | 0.15 | 97 | 1012.7 |
| 20260509135341 | 48 | 219 | 0.0 | 0.0 | 0.07 | 0.15 | 0.15 | 97 | 1013.2 |
| 20260509134838 | 48 | 233 | 0.0 | 0.0 | 0.00 | 0.14 | 0.14 | 97 | 1013.0 |
| 20260509134335 | 47 | 231 | 1.0 | 1.0 | 0.00 | 0.14 | 0.14 | 97 | 1013.0 |
| 20260509133832 | 48 | 239 | 1.0 | 1.0 | 0.00 | 0.14 | 0.14 | 97 | 1013.0 |
| 20260509133329 | 48 | 293 | 0.0 | 0.0 | 0.00 | 0.14 | 0.14 | 97 | 1012.9 |
| 20260509132828 | 48 | 240 | 0.0 | 0.0 | 0.00 | 0.14 | 0.14 | 97 | 1013.1 |
| 20260509132326 | 48 | 254 | 0.0 | 1.0 | 0.00 | 0.14 | 0.14 | 97 | 1013.1 |
| 20260509131822 | 48 | 307 | 0.0 | 0.0 | 0.00 | 0.14 | 0.14 | 97 | 1013.1 |
| 20260509131319 | 47 | 266 | 0.0 | 0.0 | 0.00 | 0.14 | 0.14 | 97 | 1012.7 |
| 20260509130815 | 47 | 264 | 0.0 | 0.0 | 0.00 | 0.14 | 0.14 | 97 | 1012.7 |
| 20260509130311 | 47 | 332 | 0.0 | 0.0 | 0.00 | 0.14 | 0.14 | 97 | 1012.7 |
| 20260509125808 | 46 | 333 | 0.0 | 0.0 | 0.00 | 0.14 | 0.14 | 97 | 1012.6 |
| 20260509125307 | 46 | 333 | 0.0 | 1.0 | 0.00 | 0.14 | 0.14 | 97 | 1012.6 |
| 20260509124801 | 46 | 334 | 0.0 | 1.0 | 0.00 | 0.14 | 0.14 | 97 | 1012.9 |
| 20260509124257 | 47 | 294 | 0.0 | 0.0 | 0.05 | 0.14 | 0.14 | 97 | 1013.0 |
| 20260509123756 | 47 | 328 | 1.0 | 1.0 | 0.05 | 0.14 | 0.14 | 97 | 1012.6 |
| 20260509123253 | 47 | 332 | 0.0 | 0.0 | 0.00 | 0.13 | 0.13 | 97 | 1013.0 |
| 20260509122748 | 46 | 346 | 0.0 | 0.0 | 0.00 | 0.13 | 0.13 | 97 | 1012.7 |
| 20260509122245 | 46 | 346 | 0.0 | 0.0 | 0.00 | 0.13 | 0.13 | 97 | 1013.1 |
| 20260509121742 | 46 | 347 | 0.0 | 0.0 | 0.00 | 0.13 | 0.13 | 97 | 1013.1 |
| 20260509121239 | 46 | 347 | 0.0 | 0.0 | 0.00 | 0.13 | 0.13 | 97 | 1013.3 |
| 20260509120737 | 46 | 346 | 0.0 | 0.0 | 0.00 | 0.13 | 0.13 | 97 | 1013.3 |
| 20260509120235 | 46 | 346 | 0.0 | 0.0 | 0.07 | 0.13 | 0.13 | 97 | 1013.5 |